Bitola, Macedonia
Current Conditions -  °F | °C
As of 5:00 PM on Friday 26 Dec 2014 (Local Time) from LWOH Reporting Station
Overcast Overcast  
Wind Chill:   Ceiling: 3500
Heat Index:   Visibility: 6mi
Dew Point:   Wind: 2mph
Humidity: 62%   Direction: 200°SSW
Pressure: 29.85"   Gusts: NA
Location:  41.04°N, 21.34°E
Report Text: LWOH 261500Z 20002KT 9999 BKN035 OVC090 08/01 Q1011
Loading
Personal Weather Stations






























Interactive Weather Map New forecast layout! Learn more

10-Day Weather Forecast

Advertisements
Track Severe Weather on mobile